sensor_id;sensor_type;location;lat;lon;timestamp;P1;durP1;ratioP1;P2;durP2;ratioP2
21354;SDS011;10835;50.148;19.760;2022-12-08T00:01:29;4.88;;;3.10;;
21354;SDS011;10835;50.148;19.760;2022-12-08T00:03:59;7.20;;;2.78;;
21354;SDS011;10835;50.148;19.760;2022-12-08T00:06:30;5.60;;;3.38;;
21354;SDS011;10835;50.148;19.760;2022-12-08T00:09:17;6.95;;;3.08;;
21354;SDS011;10835;50.148;19.760;2022-12-08T00:11:51;5.75;;;3.00;;
21354;SDS011;10835;50.148;19.760;2022-12-08T00:14:25;5.47;;;3.17;;
21354;SDS011;10835;50.148;19.760;2022-12-08T00:16:54;5.15;;;2.67;;
21354;SDS011;10835;50.148;19.760;2022-12-08T00:19:23;5.75;;;3.00;;
21354;SDS011;10835;50.148;19.760;2022-12-08T00:21:53;9.18;;;3.13;;
21354;SDS011;10835;50.148;19.760;2022-12-08T00:24:21;7.15;;;2.97;;
21354;SDS011;10835;50.148;19.760;2022-12-08T00:26:50;4.82;;;2.90;;
21354;SDS011;10835;50.148;19.760;2022-12-08T00:29:19;4.53;;;2.78;;
21354;SDS011;10835;50.148;19.760;2022-12-08T00:31:47;4.40;;;2.40;;
21354;SDS011;10835;50.148;19.760;2022-12-08T00:34:15;3.38;;;2.25;;
21354;SDS011;10835;50.148;19.760;2022-12-08T00:36:44;5.47;;;2.80;;
21354;SDS011;10835;50.148;19.760;2022-12-08T00:39:14;5.28;;;2.65;;
21354;SDS011;10835;50.148;19.760;2022-12-08T00:41:43;5.10;;;2.47;;
21354;SDS011;10835;50.148;19.760;2022-12-08T00:44:29;3.97;;;2.28;;
21354;SDS011;10835;50.148;19.760;2022-12-08T00:46:57;3.60;;;2.15;;
21354;SDS011;10835;50.148;19.760;2022-12-08T00:49:25;4.82;;;2.47;;
21354;SDS011;10835;50.148;19.760;2022-12-08T00:51:53;3.47;;;2.00;;
21354;SDS011;10835;50.148;19.760;2022-12-08T00:54:23;3.05;;;1.80;;
21354;SDS011;10835;50.148;19.760;2022-12-08T00:56:51;2.33;;;1.95;;
21354;SDS011;10835;50.148;19.760;2022-12-08T00:59:19;4.20;;;2.17;;
21354;SDS011;10835;50.148;19.760;2022-12-08T01:01:47;3.63;;;2.25;;
21354;SDS011;10835;50.148;19.760;2022-12-08T01:04:16;4.20;;;2.50;;
21354;SDS011;10835;50.148;19.760;2022-12-08T01:06:45;4.50;;;2.95;;
21354;SDS011;10835;50.148;19.760;2022-12-08T01:09:14;4.03;;;1.83;;
21354;SDS011;10835;50.148;19.760;2022-12-08T01:11:45;3.38;;;2.05;;
21354;SDS011;10835;50.148;19.760;2022-12-08T01:14:13;3.10;;;2.22;;
21354;SDS011;10835;50.148;19.760;2022-12-08T01:16:41;3.92;;;2.33;;
21354;SDS011;10835;50.148;19.760;2022-12-08T01:19:10;2.85;;;1.92;;
21354;SDS011;10835;50.148;19.760;2022-12-08T01:21:40;6.07;;;2.90;;
21354;SDS011;10835;50.148;19.760;2022-12-08T01:24:09;3.75;;;2.30;;
21354;SDS011;10835;50.148;19.760;2022-12-08T01:26:38;3.53;;;2.33;;
21354;SDS011;10835;50.148;19.760;2022-12-08T01:29:08;4.90;;;2.63;;
21354;SDS011;10835;50.148;19.760;2022-12-08T01:31:38;4.95;;;3.00;;
21354;SDS011;10835;50.148;19.760;2022-12-08T01:34:06;7.78;;;2.63;;
21354;SDS011;10835;50.148;19.760;2022-12-08T01:36:35;4.18;;;2.60;;
21354;SDS011;10835;50.148;19.760;2022-12-08T01:39:04;4.10;;;2.38;;
21354;SDS011;10835;50.148;19.760;2022-12-08T01:41:35;6.65;;;2.75;;
21354;SDS011;10835;50.148;19.760;2022-12-08T01:47:06;4.13;;;2.30;;
21354;SDS011;10835;50.148;19.760;2022-12-08T01:49:35;5.00;;;2.85;;
21354;SDS011;10835;50.148;19.760;2022-12-08T01:52:06;4.20;;;2.33;;
21354;SDS011;10835;50.148;19.760;2022-12-08T01:54:38;4.65;;;2.33;;
21354;SDS011;10835;50.148;19.760;2022-12-08T01:57:13;4.75;;;3.08;;
21354;SDS011;10835;50.148;19.760;2022-12-08T01:59:45;4.20;;;2.58;;
21354;SDS011;10835;50.148;19.760;2022-12-08T02:02:17;7.22;;;3.03;;
21354;SDS011;10835;50.148;19.760;2022-12-08T02:04:45;3.45;;;1.83;;
21354;SDS011;10835;50.148;19.760;2022-12-08T02:07:13;3.78;;;1.77;;
21354;SDS011;10835;50.148;19.760;2022-12-08T02:09:44;5.88;;;2.40;;
21354;SDS011;10835;50.148;19.760;2022-12-08T02:12:12;6.22;;;2.55;;
21354;SDS011;10835;50.148;19.760;2022-12-08T02:14:41;3.88;;;2.13;;
21354;SDS011;10835;50.148;19.760;2022-12-08T02:17:13;4.80;;;2.55;;
21354;SDS011;10835;50.148;19.760;2022-12-08T02:22:47;3.67;;;2.20;;
21354;SDS011;10835;50.148;19.760;2022-12-08T02:25:22;6.70;;;2.90;;
21354;SDS011;10835;50.148;19.760;2022-12-08T02:27:58;5.88;;;2.88;;
21354;SDS011;10835;50.148;19.760;2022-12-08T02:30:37;4.15;;;2.33;;
21354;SDS011;10835;50.148;19.760;2022-12-08T02:33:27;4.28;;;;;
21354;SDS011;10835;50.148;19.760;2022-12-08T02:36:20;4.35;;;2.05;;
21354;SDS011;10835;50.148;19.760;2022-12-08T02:38:52;3.40;;;2.30;;
21354;SDS011;10835;50.148;19.760;2022-12-08T02:41:30;5.95;;;2.28;;
21354;SDS011;10835;50.148;19.760;2022-12-08T02:44:05;3.10;;;2.13;;
21354;SDS011;10835;50.148;19.760;2022-12-08T02:46:39;3.63;;;2.22;;
21354;SDS011;10835;50.148;19.760;2022-12-08T02:49:12;3.70;;;2.25;;
21354;SDS011;10835;50.148;19.760;2022-12-08T02:51:42;3.58;;;2.17;;
21354;SDS011;10835;50.148;19.760;2022-12-08T02:54:10;3.97;;;2.80;;
21354;SDS011;10835;50.148;19.760;2022-12-08T02:56:44;2.25;;;1.77;;
21354;SDS011;10835;50.148;19.760;2022-12-08T02:59:28;3.03;;;1.88;;
21354;SDS011;10835;50.148;19.760;2022-12-08T03:02:25;6.05;;;2.92;;
21354;SDS011;10835;50.148;19.760;2022-12-08T03:05:09;5.05;;;2.70;;
21354;SDS011;10835;50.148;19.760;2022-12-08T03:07:44;3.33;;;1.85;;
21354;SDS011;10835;50.148;19.760;2022-12-08T03:10:19;4.45;;;2.92;;
21354;SDS011;10835;50.148;19.760;2022-12-08T03:12:55;4.35;;;2.70;;
21354;SDS011;10835;50.148;19.760;2022-12-08T03:15:26;3.70;;;2.35;;
21354;SDS011;10835;50.148;19.760;2022-12-08T03:17:57;4.50;;;2.53;;
21354;SDS011;10835;50.148;19.760;2022-12-08T03:20:28;4.75;;;2.45;;
21354;SDS011;10835;50.148;19.760;2022-12-08T03:22:59;2.90;;;2.30;;
21354;SDS011;10835;50.148;19.760;2022-12-08T03:25:32;6.03;;;3.35;;
21354;SDS011;10835;50.148;19.760;2022-12-08T03:28:03;6.45;;;2.85;;
21354;SDS011;10835;50.148;19.760;2022-12-08T03:30:33;3.60;;;2.22;;
21354;SDS011;10835;50.148;19.760;2022-12-08T03:33:06;4.97;;;2.60;;
21354;SDS011;10835;50.148;19.760;2022-12-08T03:35:40;3.72;;;2.25;;
21354;SDS011;10835;50.148;19.760;2022-12-08T03:38:10;6.95;;;3.05;;
21354;SDS011;10835;50.148;19.760;2022-12-08T03:40:40;3.58;;;2.30;;
21354;SDS011;10835;50.148;19.760;2022-12-08T03:43:08;4.57;;;2.22;;
21354;SDS011;10835;50.148;19.760;2022-12-08T03:45:37;5.57;;;3.22;;
21354;SDS011;10835;50.148;19.760;2022-12-08T03:48:05;4.72;;;2.72;;
21354;SDS011;10835;50.148;19.760;2022-12-08T03:50:33;3.45;;;2.28;;
21354;SDS011;10835;50.148;19.760;2022-12-08T03:53:02;4.50;;;2.58;;
21354;SDS011;10835;50.148;19.760;2022-12-08T03:55:30;4.00;;;2.40;;
21354;SDS011;10835;50.148;19.760;2022-12-08T03:57:58;4.72;;;2.50;;
21354;SDS011;10835;50.148;19.760;2022-12-08T04:00:26;7.63;;;2.60;;
21354;SDS011;10835;50.148;19.760;2022-12-08T04:02:54;4.70;;;2.70;;
21354;SDS011;10835;50.148;19.760;2022-12-08T04:05:23;4.07;;;2.30;;
21354;SDS011;10835;50.148;19.760;2022-12-08T04:07:51;3.50;;;2.45;;
21354;SDS011;10835;50.148;19.760;2022-12-08T04:10:25;4.72;;;2.20;;
21354;SDS011;10835;50.148;19.760;2022-12-08T04:12:53;4.65;;;2.90;;
21354;SDS011;10835;50.148;19.760;2022-12-08T04:15:22;6.78;;;2.78;;
21354;SDS011;10835;50.148;19.760;2022-12-08T04:17:50;2.92;;;2.28;;
21354;SDS011;10835;50.148;19.760;2022-12-08T04:20:18;7.60;;;1.83;;
21354;SDS011;10835;50.148;19.760;2022-12-08T04:22:46;4.10;;;2.40;;
21354;SDS011;10835;50.148;19.760;2022-12-08T04:25:14;4.10;;;2.20;;
21354;SDS011;10835;50.148;19.760;2022-12-08T04:27:47;6.10;;;2.80;;
21354;SDS011;10835;50.148;19.760;2022-12-08T04:30:15;3.40;;;2.63;;
21354;SDS011;10835;50.148;19.760;2022-12-08T04:32:43;4.82;;;2.33;;
21354;SDS011;10835;50.148;19.760;2022-12-08T04:35:13;3.60;;;2.65;;
21354;SDS011;10835;50.148;19.760;2022-12-08T04:37:41;5.65;;;2.95;;
21354;SDS011;10835;50.148;19.760;2022-12-08T04:40:10;3.65;;;2.40;;
21354;SDS011;10835;50.148;19.760;2022-12-08T04:42:39;5.68;;;2.78;;
21354;SDS011;10835;50.148;19.760;2022-12-08T04:45:08;6.13;;;3.33;;
21354;SDS011;10835;50.148;19.760;2022-12-08T04:47:37;4.85;;;2.78;;
21354;SDS011;10835;50.148;19.760;2022-12-08T04:50:05;4.53;;;3.20;;
21354;SDS011;10835;50.148;19.760;2022-12-08T04:52:36;6.78;;;3.03;;
21354;SDS011;10835;50.148;19.760;2022-12-08T04:55:04;5.07;;;3.17;;
21354;SDS011;10835;50.148;19.760;2022-12-08T04:57:32;3.60;;;2.42;;
21354;SDS011;10835;50.148;19.760;2022-12-08T05:00:00;6.18;;;2.88;;
21354;SDS011;10835;50.148;19.760;2022-12-08T05:02:30;5.10;;;2.83;;
21354;SDS011;10835;50.148;19.760;2022-12-08T05:04:58;5.40;;;3.33;;
21354;SDS011;10835;50.148;19.760;2022-12-08T05:07:26;5.38;;;3.45;;
21354;SDS011;10835;50.148;19.760;2022-12-08T05:09:54;5.97;;;3.08;;
21354;SDS011;10835;50.148;19.760;2022-12-08T05:12:22;5.07;;;3.05;;
21354;SDS011;10835;50.148;19.760;2022-12-08T05:14:51;6.22;;;3.35;;
21354;SDS011;10835;50.148;19.760;2022-12-08T05:17:19;13.23;;;5.53;;
21354;SDS011;10835;50.148;19.760;2022-12-08T05:19:48;12.30;;;4.05;;
21354;SDS011;10835;50.148;19.760;2022-12-08T05:22:16;6.97;;;3.85;;
21354;SDS011;10835;50.148;19.760;2022-12-08T05:24:44;12.63;;;4.97;;
21354;SDS011;10835;50.148;19.760;2022-12-08T05:27:14;11.63;;;4.50;;
21354;SDS011;10835;50.148;19.760;2022-12-08T05:29:42;9.00;;;3.85;;
21354;SDS011;10835;50.148;19.760;2022-12-08T05:32:10;14.80;;;5.78;;
21354;SDS011;10835;50.148;19.760;2022-12-08T05:34:40;10.05;;;4.75;;
21354;SDS011;10835;50.148;19.760;2022-12-08T05:37:10;7.10;;;3.80;;
21354;SDS011;10835;50.148;19.760;2022-12-08T05:39:38;10.80;;;4.65;;
21354;SDS011;10835;50.148;19.760;2022-12-08T05:42:06;11.95;;;5.05;;
21354;SDS011;10835;50.148;19.760;2022-12-08T05:44:34;7.20;;;3.78;;
21354;SDS011;10835;50.148;19.760;2022-12-08T05:47:02;6.60;;;3.50;;
21354;SDS011;10835;50.148;19.760;2022-12-08T05:49:30;5.68;;;2.90;;
21354;SDS011;10835;50.148;19.760;2022-12-08T05:51:58;7.95;;;3.58;;
21354;SDS011;10835;50.148;19.760;2022-12-08T05:54:27;5.07;;;2.75;;
21354;SDS011;10835;50.148;19.760;2022-12-08T05:56:55;7.90;;;3.53;;
21354;SDS011;10835;50.148;19.760;2022-12-08T05:59:23;5.70;;;2.97;;
21354;SDS011;10835;50.148;19.760;2022-12-08T06:01:51;5.22;;;3.05;;
21354;SDS011;10835;50.148;19.760;2022-12-08T06:04:19;8.48;;;2.88;;
21354;SDS011;10835;50.148;19.760;2022-12-08T06:06:48;3.05;;;2.35;;
21354;SDS011;10835;50.148;19.760;2022-12-08T06:09:16;5.03;;;2.70;;
21354;SDS011;10835;50.148;19.760;2022-12-08T06:11:45;5.80;;;2.90;;
21354;SDS011;10835;50.148;19.760;2022-12-08T06:14:13;15.07;;;4.97;;
21354;SDS011;10835;50.148;19.760;2022-12-08T06:16:43;15.52;;;5.95;;
21354;SDS011;10835;50.148;19.760;2022-12-08T06:19:11;19.92;;;6.38;;
21354;SDS011;10835;50.148;19.760;2022-12-08T06:21:39;16.17;;;6.35;;
21354;SDS011;10835;50.148;19.760;2022-12-08T06:24:07;9.40;;;4.55;;
21354;SDS011;10835;50.148;19.760;2022-12-08T06:26:35;16.00;;;5.97;;
21354;SDS011;10835;50.148;19.760;2022-12-08T06:29:06;17.80;;;7.47;;
21354;SDS011;10835;50.148;19.760;2022-12-08T06:31:34;15.73;;;6.88;;
21354;SDS011;10835;50.148;19.760;2022-12-08T06:34:03;10.50;;;5.07;;
21354;SDS011;10835;50.148;19.760;2022-12-08T06:36:31;10.20;;;5.68;;
21354;SDS011;10835;50.148;19.760;2022-12-08T06:38:59;9.45;;;3.88;;
21354;SDS011;10835;50.148;19.760;2022-12-08T06:41:27;10.82;;;4.93;;
21354;SDS011;10835;50.148;19.760;2022-12-08T06:43:56;8.35;;;4.18;;
21354;SDS011;10835;50.148;19.760;2022-12-08T06:46:25;13.23;;;4.70;;
21354;SDS011;10835;50.148;19.760;2022-12-08T06:48:53;8.65;;;3.45;;
21354;SDS011;10835;50.148;19.760;2022-12-08T06:51:21;6.72;;;3.30;;
21354;SDS011;10835;50.148;19.760;2022-12-08T06:53:49;5.97;;;3.20;;
21354;SDS011;10835;50.148;19.760;2022-12-08T06:56:17;5.32;;;2.95;;
21354;SDS011;10835;50.148;19.760;2022-12-08T06:58:45;2.65;;;2.42;;
21354;SDS011;10835;50.148;19.760;2022-12-08T07:01:18;5.72;;;2.70;;
21354;SDS011;10835;50.148;19.760;2022-12-08T07:03:47;10.82;;;3.53;;
21354;SDS011;10835;50.148;19.760;2022-12-08T07:06:17;6.50;;;3.15;;
21354;SDS011;10835;50.148;19.760;2022-12-08T07:08:47;6.28;;;3.45;;
21354;SDS011;10835;50.148;19.760;2022-12-08T07:11:16;19.92;;;7.55;;
21354;SDS011;10835;50.148;19.760;2022-12-08T07:13:48;24.77;;;7.72;;
21354;SDS011;10835;50.148;19.760;2022-12-08T07:16:16;29.30;;;9.63;;
21354;SDS011;10835;50.148;19.760;2022-12-08T07:18:44;27.60;;;9.88;;
21354;SDS011;10835;50.148;19.760;2022-12-08T07:21:14;25.00;;;11.07;;
21354;SDS011;10835;50.148;19.760;2022-12-08T07:23:43;22.52;;;9.02;;
21354;SDS011;10835;50.148;19.760;2022-12-08T07:26:19;26.30;;;11.15;;
21354;SDS011;10835;50.148;19.760;2022-12-08T07:28:47;28.08;;;10.45;;
21354;SDS011;10835;50.148;19.760;2022-12-08T07:31:16;24.08;;;9.35;;
21354;SDS011;10835;50.148;19.760;2022-12-08T07:33:46;23.90;;;9.00;;
21354;SDS011;10835;50.148;19.760;2022-12-08T07:36:16;18.73;;;8.30;;
21354;SDS011;10835;50.148;19.760;2022-12-08T07:38:45;14.35;;;5.22;;
21354;SDS011;10835;50.148;19.760;2022-12-08T07:41:13;11.18;;;5.88;;
21354;SDS011;10835;50.148;19.760;2022-12-08T07:43:44;10.55;;;4.90;;
21354;SDS011;10835;50.148;19.760;2022-12-08T07:46:13;9.98;;;4.75;;
21354;SDS011;10835;50.148;19.760;2022-12-08T07:48:42;7.70;;;4.00;;
21354;SDS011;10835;50.148;19.760;2022-12-08T07:51:11;7.60;;;4.57;;
21354;SDS011;10835;50.148;19.760;2022-12-08T07:53:42;7.40;;;3.88;;
21354;SDS011;10835;50.148;19.760;2022-12-08T07:56:19;6.63;;;3.63;;
21354;SDS011;10835;50.148;19.760;2022-12-08T07:58:48;8.80;;;3.65;;
21354;SDS011;10835;50.148;19.760;2022-12-08T08:01:20;6.20;;;3.30;;
21354;SDS011;10835;50.148;19.760;2022-12-08T08:03:50;8.50;;;3.78;;
21354;SDS011;10835;50.148;19.760;2022-12-08T08:06:18;6.85;;;3.63;;
21354;SDS011;10835;50.148;19.760;2022-12-08T08:08:50;7.40;;;3.63;;
21354;SDS011;10835;50.148;19.760;2022-12-08T08:11:18;8.38;;;4.20;;
21354;SDS011;10835;50.148;19.760;2022-12-08T08:13:47;7.45;;;3.90;;
21354;SDS011;10835;50.148;19.760;2022-12-08T08:16:16;6.35;;;3.63;;
21354;SDS011;10835;50.148;19.760;2022-12-08T08:18:47;9.15;;;4.03;;
21354;SDS011;10835;50.148;19.760;2022-12-08T08:21:16;8.57;;;4.50;;
21354;SDS011;10835;50.148;19.760;2022-12-08T08:24:07;13.55;;;5.30;;
21354;SDS011;10835;50.148;19.760;2022-12-08T08:26:35;10.15;;;5.15;;
21354;SDS011;10835;50.148;19.760;2022-12-08T08:29:03;11.23;;;5.43;;
21354;SDS011;10835;50.148;19.760;2022-12-08T08:31:31;11.13;;;4.82;;
21354;SDS011;10835;50.148;19.760;2022-12-08T08:33:59;11.13;;;5.22;;
21354;SDS011;10835;50.148;19.760;2022-12-08T08:36:31;10.02;;;4.82;;
21354;SDS011;10835;50.148;19.760;2022-12-08T08:38:59;11.65;;;6.00;;
21354;SDS011;10835;50.148;19.760;2022-12-08T08:41:28;9.50;;;5.45;;
21354;SDS011;10835;50.148;19.760;2022-12-08T08:43:57;8.90;;;4.57;;
21354;SDS011;10835;50.148;19.760;2022-12-08T08:46:27;12.10;;;5.95;;
21354;SDS011;10835;50.148;19.760;2022-12-08T08:48:55;10.05;;;4.88;;
21354;SDS011;10835;50.148;19.760;2022-12-08T08:51:23;6.93;;;4.82;;
21354;SDS011;10835;50.148;19.760;2022-12-08T08:53:51;9.65;;;4.47;;
21354;SDS011;10835;50.148;19.760;2022-12-08T08:56:19;9.35;;;4.50;;
21354;SDS011;10835;50.148;19.760;2022-12-08T08:58:49;9.18;;;4.63;;
21354;SDS011;10835;50.148;19.760;2022-12-08T09:01:18;8.63;;;4.28;;
21354;SDS011;10835;50.148;19.760;2022-12-08T09:03:48;9.30;;;5.03;;
21354;SDS011;10835;50.148;19.760;2022-12-08T09:06:16;6.53;;;4.38;;
21354;SDS011;10835;50.148;19.760;2022-12-08T09:08:46;7.20;;;4.70;;
21354;SDS011;10835;50.148;19.760;2022-12-08T09:11:14;11.68;;;5.00;;
21354;SDS011;10835;50.148;19.760;2022-12-08T09:13:46;8.20;;;4.47;;
21354;SDS011;10835;50.148;19.760;2022-12-08T09:16:16;11.30;;;4.97;;
21354;SDS011;10835;50.148;19.760;2022-12-08T09:18:45;7.90;;;4.55;;
21354;SDS011;10835;50.148;19.760;2022-12-08T09:21:15;10.18;;;4.68;;
21354;SDS011;10835;50.148;19.760;2022-12-08T09:23:47;8.18;;;4.85;;
21354;SDS011;10835;50.148;19.760;2022-12-08T09:26:16;9.52;;;4.95;;
21354;SDS011;10835;50.148;19.760;2022-12-08T09:28:47;11.73;;;5.90;;
21354;SDS011;10835;50.148;19.760;2022-12-08T09:31:17;12.98;;;5.05;;
21354;SDS011;10835;50.148;19.760;2022-12-08T09:33:46;9.63;;;5.00;;
21354;SDS011;10835;50.148;19.760;2022-12-08T09:36:16;9.55;;;4.18;;
21354;SDS011;10835;50.148;19.760;2022-12-08T09:38:45;10.73;;;4.85;;
21354;SDS011;10835;50.148;19.760;2022-12-08T09:41:13;8.63;;;5.15;;
21354;SDS011;10835;50.148;19.760;2022-12-08T09:43:51;10.27;;;5.32;;
21354;SDS011;10835;50.148;19.760;2022-12-08T09:46:28;8.07;;;5.13;;
21354;SDS011;10835;50.148;19.760;2022-12-08T09:48:58;8.50;;;4.72;;
21354;SDS011;10835;50.148;19.760;2022-12-08T09:51:29;8.57;;;4.30;;
21354;SDS011;10835;50.148;19.760;2022-12-08T09:54:02;9.60;;;5.00;;
21354;SDS011;10835;50.148;19.760;2022-12-08T09:56:34;7.88;;;4.47;;
21354;SDS011;10835;50.148;19.760;2022-12-08T09:59:05;8.18;;;4.38;;
21354;SDS011;10835;50.148;19.760;2022-12-08T10:01:43;7.03;;;4.32;;
21354;SDS011;10835;50.148;19.760;2022-12-08T10:04:12;11.50;;;5.32;;
21354;SDS011;10835;50.148;19.760;2022-12-08T10:06:50;7.78;;;4.55;;
21354;SDS011;10835;50.148;19.760;2022-12-08T10:09:34;11.23;;;4.75;;
21354;SDS011;10835;50.148;19.760;2022-12-08T10:12:09;7.97;;;4.90;;
21354;SDS011;10835;50.148;19.760;2022-12-08T10:14:45;8.70;;;4.93;;
21354;SDS011;10835;50.148;19.760;2022-12-08T10:17:22;7.95;;;5.10;;
21354;SDS011;10835;50.148;19.760;2022-12-08T10:19:54;6.80;;;4.35;;
21354;SDS011;10835;50.148;19.760;2022-12-08T10:22:30;9.10;;;5.20;;
21354;SDS011;10835;50.148;19.760;2022-12-08T10:25:09;10.57;;;5.30;;
21354;SDS011;10835;50.148;19.760;2022-12-08T10:27:42;8.63;;;4.55;;
21354;SDS011;10835;50.148;19.760;2022-12-08T10:30:13;9.73;;;5.57;;
21354;SDS011;10835;50.148;19.760;2022-12-08T10:32:44;8.98;;;4.72;;
21354;SDS011;10835;50.148;19.760;2022-12-08T10:35:14;12.88;;;6.45;;
21354;SDS011;10835;50.148;19.760;2022-12-08T10:37:53;18.38;;;9.43;;
21354;SDS011;10835;50.148;19.760;2022-12-08T10:40:23;79.97;;;36.58;;
21354;SDS011;10835;50.148;19.760;2022-12-08T10:42:55;10.63;;;5.40;;
21354;SDS011;10835;50.148;19.760;2022-12-08T10:45:26;20.70;;;12.20;;
21354;SDS011;10835;50.148;19.760;2022-12-08T10:48:00;14.02;;;7.55;;
21354;SDS011;10835;50.148;19.760;2022-12-08T10:50:31;10.90;;;6.35;;
21354;SDS011;10835;50.148;19.760;2022-12-08T10:53:01;20.27;;;14.18;;
21354;SDS011;10835;50.148;19.760;2022-12-08T10:55:41;19.83;;;10.77;;
21354;SDS011;10835;50.148;19.760;2022-12-08T10:58:30;13.85;;;7.40;;
21354;SDS011;10835;50.148;19.760;2022-12-08T11:01:02;12.98;;;8.32;;
21354;SDS011;10835;50.148;19.760;2022-12-08T11:03:38;11.95;;;7.60;;
21354;SDS011;10835;50.148;19.760;2022-12-08T11:06:14;10.82;;;6.18;;
21354;SDS011;10835;50.148;19.760;2022-12-08T11:08:46;10.57;;;5.07;;
21354;SDS011;10835;50.148;19.760;2022-12-08T11:11:16;9.40;;;5.53;;
21354;SDS011;10835;50.148;19.760;2022-12-08T11:13:54;8.18;;;5.05;;
21354;SDS011;10835;50.148;19.760;2022-12-08T11:16:22;7.47;;;4.60;;
21354;SDS011;10835;50.148;19.760;2022-12-08T11:18:55;9.80;;;6.03;;
21354;SDS011;10835;50.148;19.760;2022-12-08T11:21:30;11.00;;;6.13;;
21354;SDS011;10835;50.148;19.760;2022-12-08T11:26:48;7.45;;;5.30;;
21354;SDS011;10835;50.148;19.760;2022-12-08T11:29:19;13.98;;;5.82;;
21354;SDS011;10835;50.148;19.760;2022-12-08T11:31:51;12.13;;;6.18;;
21354;SDS011;10835;50.148;19.760;2022-12-08T11:34:30;12.02;;;6.25;;
21354;SDS011;10835;50.148;19.760;2022-12-08T11:37:03;10.27;;;5.57;;
21354;SDS011;10835;50.148;19.760;2022-12-08T11:39:33;8.07;;;5.20;;
21354;SDS011;10835;50.148;19.760;2022-12-08T11:42:02;10.55;;;4.90;;
21354;SDS011;10835;50.148;19.760;2022-12-08T11:44:34;9.38;;;5.32;;
21354;SDS011;10835;50.148;19.760;2022-12-08T11:47:07;9.25;;;5.35;;
21354;SDS011;10835;50.148;19.760;2022-12-08T11:49:43;14.45;;;5.53;;
21354;SDS011;10835;50.148;19.760;2022-12-08T11:52:18;12.57;;;6.07;;
21354;SDS011;10835;50.148;19.760;2022-12-08T11:54:54;9.13;;;5.43;;
21354;SDS011;10835;50.148;19.760;2022-12-08T11:57:29;9.65;;;5.68;;
21354;SDS011;10835;50.148;19.760;2022-12-08T11:59:57;14.50;;;7.18;;
21354;SDS011;10835;50.148;19.760;2022-12-08T12:02:37;9.80;;;5.63;;
21354;SDS011;10835;50.148;19.760;2022-12-08T12:05:19;13.18;;;6.45;;
21354;SDS011;10835;50.148;19.760;2022-12-08T12:08:21;14.43;;;6.28;;
21354;SDS011;10835;50.148;19.760;2022-12-08T12:11:03;7.93;;;4.05;;
21354;SDS011;10835;50.148;19.760;2022-12-08T12:13:44;3.90;;;2.80;;
21354;SDS011;10835;50.148;19.760;2022-12-08T12:16:32;4.70;;;3.40;;
21354;SDS011;10835;50.148;19.760;2022-12-08T12:19:16;4.50;;;3.28;;
21354;SDS011;10835;50.148;19.760;2022-12-08T12:21:49;6.70;;;3.53;;
21354;SDS011;10835;50.148;19.760;2022-12-08T12:24:20;5.68;;;3.10;;
21354;SDS011;10835;50.148;19.760;2022-12-08T12:26:57;5.13;;;2.85;;
21354;SDS011;10835;50.148;19.760;2022-12-08T12:29:27;7.20;;;3.22;;
21354;SDS011;10835;50.148;19.760;2022-12-08T12:31:58;3.90;;;2.22;;
21354;SDS011;10835;50.148;19.760;2022-12-08T12:34:29;2.53;;;2.00;;
21354;SDS011;10835;50.148;19.760;2022-12-08T12:37:04;3.13;;;2.00;;
21354;SDS011;10835;50.148;19.760;2022-12-08T12:39:44;4.38;;;2.60;;
21354;SDS011;10835;50.148;19.760;2022-12-08T12:45:11;3.10;;;2.05;;
21354;SDS011;10835;50.148;19.760;2022-12-08T12:47:52;3.17;;;1.77;;
21354;SDS011;10835;50.148;19.760;2022-12-08T12:50:47;4.70;;;2.10;;
21354;SDS011;10835;50.148;19.760;2022-12-08T12:59:31;4.88;;;2.13;;
21354;SDS011;10835;50.148;19.760;2022-12-08T13:02:10;3.13;;;1.98;;
21354;SDS011;10835;50.148;19.760;2022-12-08T13:04:51;4.28;;;2.50;;
21354;SDS011;10835;50.148;19.760;2022-12-08T13:07:22;6.07;;;2.25;;
21354;SDS011;10835;50.148;19.760;2022-12-08T13:09:56;6.72;;;2.45;;
21354;SDS011;10835;50.148;19.760;2022-12-08T13:12:27;5.95;;;2.60;;
21354;SDS011;10835;50.148;19.760;2022-12-08T13:14:57;3.90;;;2.65;;
21354;SDS011;10835;50.148;19.760;2022-12-08T13:17:30;9.38;;;2.95;;
21354;SDS011;10835;50.148;19.760;2022-12-08T13:20:00;6.53;;;3.08;;
21354;SDS011;10835;50.148;19.760;2022-12-08T13:22:45;5.03;;;2.53;;
21354;SDS011;10835;50.148;19.760;2022-12-08T13:28:16;6.40;;;3.47;;
21354;SDS011;10835;50.148;19.760;2022-12-08T13:30:48;4.30;;;2.50;;
21354;SDS011;10835;50.148;19.760;2022-12-08T13:33:17;5.38;;;3.15;;
21354;SDS011;10835;50.148;19.760;2022-12-08T13:35:50;4.40;;;2.83;;
21354;SDS011;10835;50.148;19.760;2022-12-08T13:38:27;5.03;;;2.97;;
21354;SDS011;10835;50.148;19.760;2022-12-08T13:41:02;4.95;;;2.92;;
21354;SDS011;10835;50.148;19.760;2022-12-08T13:43:34;7.60;;;3.20;;
21354;SDS011;10835;50.148;19.760;2022-12-08T13:46:28;6.18;;;3.55;;
21354;SDS011;10835;50.148;19.760;2022-12-08T13:49:21;4.50;;;2.75;;
21354;SDS011;10835;50.148;19.760;2022-12-08T13:52:15;9.23;;;4.68;;
21354;SDS011;10835;50.148;19.760;2022-12-08T13:55:12;8.20;;;3.65;;
21354;SDS011;10835;50.148;19.760;2022-12-08T13:58:05;7.72;;;3.17;;
21354;SDS011;10835;50.148;19.760;2022-12-08T14:00:33;6.93;;;2.90;;
21354;SDS011;10835;50.148;19.760;2022-12-08T14:03:01;5.43;;;2.67;;
21354;SDS011;10835;50.148;19.760;2022-12-08T14:05:37;7.15;;;3.20;;
21354;SDS011;10835;50.148;19.760;2022-12-08T14:08:28;4.53;;;2.75;;
21354;SDS011;10835;50.148;19.760;2022-12-08T14:11:21;5.63;;;3.40;;
21354;SDS011;10835;50.148;19.760;2022-12-08T14:14:02;7.53;;;3.53;;
21354;SDS011;10835;50.148;19.760;2022-12-08T14:16:35;7.05;;;3.25;;
21354;SDS011;10835;50.148;19.760;2022-12-08T14:19:05;7.10;;;2.85;;
21354;SDS011;10835;50.148;19.760;2022-12-08T14:21:44;7.30;;;3.58;;
21354;SDS011;10835;50.148;19.760;2022-12-08T14:24:13;5.00;;;2.80;;
21354;SDS011;10835;50.148;19.760;2022-12-08T14:26:41;4.10;;;2.78;;
21354;SDS011;10835;50.148;19.760;2022-12-08T14:29:16;6.13;;;3.47;;
21354;SDS011;10835;50.148;19.760;2022-12-08T14:32:21;5.72;;;3.92;;
21354;SDS011;10835;50.148;19.760;2022-12-08T14:34:52;6.65;;;3.92;;
21354;SDS011;10835;50.148;19.760;2022-12-08T14:37:21;6.78;;;2.97;;
21354;SDS011;10835;50.148;19.760;2022-12-08T14:39:50;5.65;;;3.38;;
21354;SDS011;10835;50.148;19.760;2022-12-08T14:42:20;6.53;;;3.83;;
21354;SDS011;10835;50.148;19.760;2022-12-08T14:44:55;4.97;;;3.28;;
21354;SDS011;10835;50.148;19.760;2022-12-08T14:47:30;7.68;;;3.40;;
21354;SDS011;10835;50.148;19.760;2022-12-08T14:50:00;9.13;;;4.75;;
21354;SDS011;10835;50.148;19.760;2022-12-08T14:52:30;6.45;;;3.88;;
21354;SDS011;10835;50.148;19.760;2022-12-08T14:54:58;6.72;;;3.63;;
21354;SDS011;10835;50.148;19.760;2022-12-08T14:57:29;7.20;;;3.55;;
21354;SDS011;10835;50.148;19.760;2022-12-08T15:00:17;8.10;;;3.88;;
21354;SDS011;10835;50.148;19.760;2022-12-08T15:02:47;7.70;;;3.80;;
21354;SDS011;10835;50.148;19.760;2022-12-08T15:05:15;14.60;;;7.47;;
21354;SDS011;10835;50.148;19.760;2022-12-08T15:07:46;45.80;;;17.48;;
21354;SDS011;10835;50.148;19.760;2022-12-08T15:10:21;39.45;;;16.02;;
21354;SDS011;10835;50.148;19.760;2022-12-08T15:12:59;31.95;;;14.07;;
21354;SDS011;10835;50.148;19.760;2022-12-08T15:15:47;30.95;;;13.23;;
21354;SDS011;10835;50.148;19.760;2022-12-08T15:18:17;53.65;;;23.13;;
21354;SDS011;10835;50.148;19.760;2022-12-08T15:20:51;55.03;;;22.08;;